Portada
METAR-TAF:

METAR-TAF

Aeropuertos :

Grazzanise, Italia

latitud: 41-03N, longitud: 014-04E, altitud: 9 m

Observación

El informe se hizo hace 1 hora y 17 minutos, a las 07:55 UTC
Temperatura 11°C
Humedad 66%
Presión 1024 hPa
Visibilidad 10 km o más
Cielo nuboso a una altura de 4000 ft

METAR: LIRM 070755Z /////KT 9999 BKN040 11/05 Q1024

Hora: 10:12 (09:12 UTC)

Pronóstico

El informe se hizo hace 1 hora y 12 minutos, a las 08:00 UTC
Pronóstico válido del 07 a las 09 UTC al 07 a las 18 UTC
Viento 12 kt del norte-noreste
Visibilidad 10 km o más
Escasas nubes a una altura de 2500 ft
Cielo nuboso a una altura de 4000 ft
Evolucionando progresivamente
del 07 a las 12 UTC al 07 a las 14 UTC
Viento 3 kt con dirección variable

TAF: LIRM 070800Z 0709/0718 03012KT 9999 FEW025 BKN040 BECMG 0712/0714 VRB03KT

Observaciones y pronósticos meteorológicos de más de 4000 aeropuertos (mensajes METAR y TAF).

Los puntos amarillos y rojos representan las estaciones disponibles.

Ponga el ratón en el punto deseado para ver el nombre de la estación.

Haga clic para ver las observaciones y los pronósticos meteorológicos.

Para cambiar el mapa : haga clic en los botones verdes con una cruz de color negro para hacer un zoom, en el botón verde con un guión para alejar o en las flechas verdes para mapas adyacentes.


METAR-TAF: